Historyczne dane pomiarowe

Dodano dane terminowe – wersja testowa.

Dane z okresu 1951-2019

Wersja bazy: 1.34 [2019-03-16, lista zmian], aktualizacja planowana na 2019-04-15

Dane meteo z obszaru Polski uzyskane na podstawie danych udostępnionych przez Instytut Meteorologii i Gospodarki Wodnej – Państwowy Instytut Badawczy.

 

Wybierz Datę:    

       

TemperaturaWilgotnośćWiatrCiśnienieOpadyŚniegCzas trwania zjawisk
 Stacja t tx tn tng RH VA  wxwx mslp ppp RRR   cm mm wxwxwxwxwxwxwx
1987-08-14 15.4 20.6 11.5- 76.3- 6.3 1.0---- 2.4------------
1987-08-13 12.3 15.9 9.2- 86.3- 8.0 1.0---- 0.0------------
1987-08-12 13.5 18.1 10.5- 74.8- 4.7 2.3---- 0.0------------
1987-08-11 12.6 15.0 11.5- 92.0- 7.3 1.0---- 7.0------------
1987-08-10 15.1 19.0 14.1- 88.8- 8.0 1.3---- 6.6------------
1987-08-09 17.8 22.5 11.6- 65.8- 6.0 1.0---- 3.1------------
1987-08-08 15.4 21.4 10.5- 65.5- 4.0 1.0---- 0.0------------
1987-08-07 13.0 19.4 9.0- 73.3- 6.7 2.0---- 0.0------------
1987-08-06 13.8 17.9 10.5- 69.3- 6.7 2.0---- 2.0------------
1987-08-05 13.4 18.9 9.0- 74.8- 2.0 1.3---- 0.0------------
1987-08-04 14.2 18.3 11.4- 79.5- 5.7 1.0---- 4.5------------
1987-08-03 14.5 17.1 11.5- 70.0- 5.3 1.7---- 0.0------------
1987-08-02 14.5 18.9 12.5- 81.8- 6.7 1.0---- 0.8------------
1987-08-01 15.6 20.9 12.0- 80.0- 7.7 1.0---- 6.0------------
1987-07-31 16.2 20.1 15.1- 90.8- 8.0 1.0---- 17.7------------
1987-07-30 17.9 23.7 12.0- 67.8- 2.7 1.0---- 1.2------------
1987-07-29 15.4 19.7 11.7- 71.8- 5.7 1.0---- 0.5------------
1987-07-28 15.1 19.6 12.2- 76.5- 7.0 2.0---- 2.5------------
1987-07-27 12.9 16.6 9.2- 71.0- 6.3 2.3---- 1.9------------
1987-07-26 15.2 19.6 13.3- 73.5- 4.3 1.3---- 0.2------------
1987-07-25 19.2 23.3 17.1- 73.3- 4.0 1.0---- 0.0------------
1987-07-24 21.4 26.4 18.2- 72.3- 6.3 1.0---- 0.0------------
1987-07-23 22.2 27.4 17.3- 72.0- 2.3 1.0---- 0.0------------
1987-07-22 20.4 24.4 17.1- 78.0- 6.0 1.0---- 0.0------------
1987-07-21 19.8 24.4 15.1- 72.0- 1.0 1.0---- 0.0------------
1987-07-20 18.8 22.7 17.3- 86.8- 5.7 1.0---- 0.0------------
1987-07-19 20.5 24.9 16.1- 81.3- 6.3 1.7---- 0.8------------
1987-07-18 20.9 24.7 18.3- 83.5- 5.3 1.7---- 0.0------------
1987-07-17 20.0 26.9 15.1- 77.5- 5.7 1.3---- 2.0------------
1987-07-16 18.8 25.6 10.8- 67.5- 2.0 1.3---- 0.0------------
1987-07-15 16.9 23.3 10.6- 61.8- 0.0 1.0---- 0.0------------
1987-07-14 15.5 20.3 11.5- 69.5- 5.3 1.3---- 0.0------------
1987-07-13 16.6 20.7 13.3- 75.5- 2.7 2.0---- 0.0------------
1987-07-12 18.4 24.7 15.1- 87.8- 6.7 1.0---- 9.9------------
1987-07-11 15.3 20.6 11.2- 71.0- 7.3 1.3---- 19.0------------
1987-07-10 14.5 18.4 11.0- 66.8- 4.7 2.7---- 0.0------------
1987-07-09 18.6 26.1 16.0- 82.8- 8.0 2.3---- 0.9------------
1987-07-08 23.4 29.9 16.8- 56.8- 3.3 1.0---- 2.6------------
1987-07-07 21.8 27.7 14.4- 56.8- 0.0 1.0---- 0.0------------
1987-07-06 19.2 25.3 12.0- 56.5- 0.7 1.0---- 0.0------------
1987-07-05 17.5 22.9 13.0- 68.3- 3.0 1.0---- 0.0------------
1987-07-04 18.2 23.1 14.9- 64.5- 7.3 1.3---- 0.0------------
1987-07-03 19.0 23.5 13.6- 64.0- 4.0 1.0---- 0.0------------
1987-07-02 20.0 27.9 17.2- 73.3- 5.3 1.0---- 0.0------------
1987-07-01 26.1 31.9 20.5- 68.3- 3.7 1.3---- 0.0------------
1987-06-30 24.3 29.2 20.6- 75.3- 2.3 1.0---- 0.0------------
1987-06-29 18.8 24.4 11.5- 71.3- 4.0 1.0---- 0.0------------
1987-06-28 18.3 22.7 15.1- 77.8- 5.7 2.3---- 0.4------------
1987-06-27 18.8 22.2 17.1- 76.5- 4.7 1.3---- 0.0------------
1987-06-26 16.8 22.6 11.4- 71.3- 7.0 1.0---- 0.4------------
1987-06-25 13.6 18.6 10.5- 88.3- 6.3 1.0---- 5.0------------
1987-06-24 16.9 20.7 13.9- 68.0- 5.7 1.7---- 1.9------------
1987-06-23 15.7 22.0 14.0- 81.0- 7.0 1.0---- 0.0------------
1987-06-22 20.0 26.1 13.3- 63.5- 3.3 1.0---- 0.0------------
1987-06-21 18.1 23.9 11.1- 68.0- 2.7 1.0---- 0.0------------
1987-06-20 16.2 22.7 9.2- 66.5- 0.7 1.3---- 0.0------------
1987-06-19 11.8 16.7 7.6- 79.3- 5.7 1.0---- 2.0------------
1987-06-18 10.7 17.3 7.8- 80.5- 4.3 1.3---- 6.7------------
1987-06-17 12.5 15.2 11.2- 69.0- 5.3 2.0---- 0.0------------
1987-06-16 15.1 25.1 11.0- 78.8- 8.0 3.0---- 1.1------------
404.8 ms

 

Źródłem pochodzenia danych jest Instytut Meteorologii i Gospodarki Wodnej – Państwowy Instytut Badawczy. Dane Instytutu Meteorologii i Gospodarki Wodnej – Państwowego Instytutu Badawczego zostały przetworzone.

Dane źródłowe można odnaleźć na stronie https://dane.imgw.pl